Kalundborg, Denmark
Current Conditions -  °F | °C
As of 12:50 PM on Thursday 30 Oct 2014 (Local Time) from EKOD Reporting Station
Broken Clouds Broken Clouds  
Wind Chill: 50°   Ceiling: 18000
Heat Index: 50°   Visibility: 6mi
Dew Point: 45°   Wind: 0mph
Humidity: 82%   Direction: NA
Pressure: 30.27"   Gusts: NA
Location:  55.68°N, 11.1°E
Report Text: EKOD 301150Z 00000KT 9999 SCT040 BKN180 10/07 Q1025
Loading
Personal Weather Stations






























Interactive Weather Map
Tropical Storm Tracking
New forecast layout! Learn more

10-Day Weather Forecast

Advertisements
Track Severe Weather on mobile